createdAt,value
2022-12-25T00:02:17.736Z,91.68
2022-12-25T00:04:45.905Z,91.67
2022-12-25T00:07:13.600Z,91.66
2022-12-25T00:09:41.279Z,91.38
2022-12-25T00:12:08.982Z,91.62
2022-12-25T00:14:36.655Z,92.09
2022-12-25T00:17:04.377Z,92.10
2022-12-25T00:19:33.672Z,92.36
2022-12-25T00:22:01.419Z,92.42
2022-12-25T00:24:29.089Z,92.60
2022-12-25T00:26:57.155Z,92.90
2022-12-25T00:29:24.839Z,93.12
2022-12-25T00:31:52.627Z,93.36
2022-12-25T00:34:20.351Z,93.43
2022-12-25T00:36:52.994Z,93.45
2022-12-25T00:39:22.100Z,93.46
2022-12-25T00:42:07.516Z,93.33
2022-12-25T00:44:35.409Z,93.37
2022-12-25T00:47:03.604Z,93.76
2022-12-25T00:49:31.413Z,93.28
2022-12-25T00:52:00.841Z,93.36
2022-12-25T00:54:28.536Z,93.79
2022-12-25T00:56:56.351Z,93.79
2022-12-25T00:59:24.069Z,93.59
2022-12-25T01:01:51.968Z,93.82
2022-12-25T01:04:19.738Z,93.92
2022-12-25T01:06:47.457Z,94.07
2022-12-25T01:09:34.166Z,93.57
2022-12-25T01:12:01.915Z,93.47
2022-12-25T01:14:29.652Z,93.50
2022-12-25T01:16:57.402Z,92.92
2022-12-25T01:19:25.158Z,93.10
2022-12-25T01:21:52.891Z,93.42
2022-12-25T01:24:21.909Z,93.05
2022-12-25T01:26:49.650Z,92.29
2022-12-25T01:29:17.603Z,92.16
2022-12-25T01:31:45.476Z,92.72
2022-12-25T01:34:13.466Z,92.55
2022-12-25T01:36:41.118Z,92.36
2022-12-25T01:39:08.867Z,92.15
2022-12-25T01:41:37.956Z,92.00
2022-12-25T01:44:09.402Z,91.06
2022-12-25T01:46:37.403Z,91.07
2022-12-25T01:49:09.023Z,91.48
2022-12-25T01:51:41.114Z,91.95
2022-12-25T01:54:12.773Z,91.85
2022-12-25T01:56:44.236Z,92.14
2022-12-25T01:59:14.752Z,92.78
2022-12-25T02:01:42.774Z,93.24
2022-12-25T02:04:17.920Z,92.87
2022-12-25T02:06:46.189Z,92.96
2022-12-25T02:09:13.873Z,93.49
2022-12-25T02:11:58.372Z,93.77
2022-12-25T02:14:26.720Z,94.10
2022-12-25T02:17:06.812Z,94.96
2022-12-25T02:19:57.160Z,95.68
2022-12-25T02:22:36.179Z,95.55
2022-12-25T02:25:16.605Z,96.03
2022-12-25T02:28:11.754Z,96.69
2022-12-25T02:30:44.001Z,96.35
2022-12-25T02:33:33.387Z,96.06
2022-12-25T02:36:06.100Z,96.03
2022-12-25T02:38:39.446Z,96.41
2022-12-25T02:41:12.123Z,95.65
2022-12-25T02:44:02.059Z,95.43
2022-12-25T02:46:50.358Z,95.93
2022-12-25T02:49:40.794Z,95.86
2022-12-25T02:52:30.292Z,95.50
2022-12-25T02:55:19.513Z,95.67
2022-12-25T02:58:08.630Z,95.56
2022-12-25T03:01:14.046Z,94.98
2022-12-25T03:04:01.370Z,94.82
2022-12-25T03:06:46.435Z,94.30
2022-12-25T03:09:37.020Z,94.04
2022-12-25T03:12:13.249Z,94.89
2022-12-25T03:14:58.215Z,94.53
2022-12-25T03:17:27.685Z,94.02
2022-12-25T03:20:13.092Z,94.12
2022-12-25T03:23:01.363Z,94.74
2022-12-25T03:25:47.850Z,94.88
2022-12-25T03:28:16.127Z,94.92
2022-12-25T03:31:06.595Z,94.34
2022-12-25T03:34:08.996Z,93.71
2022-12-25T03:36:44.562Z,94.04
2022-12-25T03:39:39.292Z,92.50
2022-12-25T03:42:25.689Z,91.94
2022-12-25T03:45:20.698Z,91.78
2022-12-25T03:48:09.253Z,92.09
2022-12-25T03:50:59.360Z,92.03
2022-12-25T03:53:47.705Z,91.01
2022-12-25T03:56:36.083Z,89.85
2022-12-25T03:59:24.056Z,90.60
2022-12-25T04:02:10.067Z,91.06
2022-12-25T04:04:56.084Z,91.39
2022-12-25T04:07:45.041Z,91.73
2022-12-25T04:10:32.371Z,92.02
2022-12-25T04:13:17.791Z,92.02
2022-12-25T04:16:08.135Z,92.25
2022-12-25T04:18:52.519Z,91.63
2022-12-25T04:21:37.792Z,91.11
2022-12-25T04:24:25.500Z,90.70
2022-12-25T04:27:13.961Z,90.96
2022-12-25T04:29:59.412Z,90.84
2022-12-25T04:33:00.908Z,90.62
2022-12-25T04:35:46.344Z,90.73
2022-12-25T04:38:14.127Z,90.46
2022-12-25T04:40:45.098Z,90.62
2022-12-25T04:43:13.350Z,90.23
2022-12-25T04:45:41.129Z,89.95
2022-12-25T04:48:14.229Z,89.11
2022-12-25T04:50:42.561Z,88.42
2022-12-25T04:53:10.256Z,87.67
2022-12-25T04:55:37.970Z,87.25
2022-12-25T04:58:08.061Z,87.56
2022-12-25T05:00:35.784Z,87.44
2022-12-25T05:03:03.610Z,87.88
2022-12-25T05:05:31.386Z,87.67
2022-12-25T05:07:59.095Z,88.24
2022-12-25T05:10:26.833Z,88.55
2022-12-25T05:12:54.574Z,88.69
2022-12-25T05:15:23.647Z,88.52
2022-12-25T05:17:51.863Z,88.43
2022-12-25T05:20:19.707Z,88.49
2022-12-25T05:22:47.376Z,88.24
2022-12-25T05:25:15.270Z,88.83
2022-12-25T05:27:44.589Z,88.86
2022-12-25T05:30:14.762Z,89.02
2022-12-25T05:32:43.982Z,89.27
2022-12-25T05:35:11.657Z,89.43
2022-12-25T05:37:39.427Z,88.92
2022-12-25T05:40:08.418Z,88.63
2022-12-25T05:42:36.124Z,89.07
2022-12-25T05:45:03.908Z,88.89
2022-12-25T05:47:31.679Z,89.77
2022-12-25T05:50:00.723Z,90.70
2022-12-25T05:52:32.368Z,91.03
2022-12-25T05:55:00.559Z,90.35
2022-12-25T05:57:30.296Z,89.47
2022-12-25T05:59:57.943Z,89.18
2022-12-25T06:02:25.814Z,88.79
2022-12-25T06:04:53.608Z,88.43
2022-12-25T06:07:22.713Z,88.29
2022-12-25T06:09:50.412Z,88.18
2022-12-25T06:12:18.084Z,88.26
2022-12-25T06:14:45.896Z,88.12
2022-12-25T06:17:13.586Z,88.24
2022-12-25T06:19:43.602Z,88.32
2022-12-25T06:22:11.371Z,88.34
2022-12-25T06:24:42.241Z,88.64
2022-12-25T06:27:11.579Z,88.96
2022-12-25T06:29:39.451Z,89.08
2022-12-25T06:32:07.243Z,89.18
2022-12-25T06:34:35.140Z,89.38
2022-12-25T06:37:04.034Z,88.73
2022-12-25T06:39:33.519Z,89.18
2022-12-25T06:42:02.688Z,88.08
2022-12-25T06:44:31.155Z,88.83
2022-12-25T06:47:02.463Z,88.31
2022-12-25T06:49:32.870Z,87.96
2022-12-25T06:52:03.003Z,87.94
2022-12-25T06:54:30.841Z,87.52
2022-12-25T06:56:58.578Z,87.64
2022-12-25T06:59:27.613Z,87.10
2022-12-25T07:01:57.435Z,87.26
2022-12-25T07:04:32.092Z,86.78
2022-12-25T07:07:06.157Z,86.52
2022-12-25T07:09:36.378Z,86.24
2022-12-25T07:12:05.789Z,85.80
2022-12-25T07:14:34.930Z,85.65
2022-12-25T07:17:02.628Z,85.79
2022-12-25T07:19:30.346Z,85.81
2022-12-25T07:21:58.040Z,85.91
2022-12-25T07:24:26.217Z,86.58
2022-12-25T07:26:54.258Z,86.75
2022-12-25T07:29:21.864Z,86.35
2022-12-25T07:31:51.050Z,86.54
2022-12-25T07:34:19.590Z,86.72
2022-12-25T07:36:47.741Z,87.13
2022-12-25T07:39:16.224Z,87.67
2022-12-25T07:41:44.310Z,86.99
2022-12-25T07:44:12.033Z,87.11
2022-12-25T07:46:39.745Z,87.02
2022-12-25T07:49:08.796Z,86.60
2022-12-25T07:51:36.459Z,86.13
2022-12-25T07:54:04.465Z,86.20
2022-12-25T07:56:32.242Z,86.22
2022-12-25T07:58:59.946Z,86.10
2022-12-25T08:01:28.929Z,85.75
2022-12-25T08:03:58.687Z,85.93
2022-12-25T08:06:31.505Z,85.95
2022-12-25T08:09:04.441Z,85.84
2022-12-25T08:11:32.373Z,85.51
2022-12-25T08:14:00.071Z,84.62
2022-12-25T08:16:27.763Z,85.18
2022-12-25T08:18:55.542Z,85.32
2022-12-25T08:21:23.194Z,85.63
2022-12-25T08:24:04.325Z,85.96
2022-12-25T08:26:32.138Z,86.54
2022-12-25T08:28:59.907Z,87.15
2022-12-25T08:31:29.766Z,87.20
2022-12-25T08:33:59.689Z,86.79
2022-12-25T08:36:27.824Z,87.11
2022-12-25T08:39:02.525Z,87.06
2022-12-25T08:41:31.040Z,87.32
2022-12-25T08:43:58.902Z,87.19
2022-12-25T08:46:26.717Z,87.70
2022-12-25T08:48:54.976Z,87.24
2022-12-25T08:51:24.013Z,88.04
2022-12-25T08:53:53.055Z,87.65
2022-12-25T08:56:22.578Z,87.32
2022-12-25T08:58:50.275Z,87.92
2022-12-25T09:01:18.072Z,87.93
2022-12-25T09:03:45.945Z,87.48
2022-12-25T09:06:15.828Z,86.99
2022-12-25T09:08:49.185Z,86.47
2022-12-25T09:11:18.949Z,86.34
2022-12-25T09:13:48.591Z,86.29
2022-12-25T09:16:18.390Z,85.86
2022-12-25T09:18:46.226Z,85.92
2022-12-25T09:21:15.614Z,85.93
2022-12-25T09:23:43.375Z,85.52
2022-12-25T09:26:14.245Z,85.21
2022-12-25T09:28:48.542Z,85.00
2022-12-25T09:31:19.892Z,84.56
2022-12-25T09:33:48.071Z,84.63
2022-12-25T09:36:15.772Z,85.13
2022-12-25T09:38:43.875Z,85.13
2022-12-25T09:41:17.087Z,85.72
2022-12-25T09:43:49.284Z,86.52
2022-12-25T09:46:20.934Z,85.81
2022-12-25T09:49:00.406Z,85.54
2022-12-25T09:51:30.734Z,84.82
2022-12-25T09:54:02.950Z,83.70
2022-12-25T09:56:30.618Z,81.45
2022-12-25T09:58:58.367Z,81.27
2022-12-25T10:01:35.098Z,82.07
2022-12-25T10:04:23.707Z,82.18
2022-12-25T10:07:06.152Z,82.67
2022-12-25T10:09:51.256Z,82.57
2022-12-25T10:12:34.686Z,82.50
2022-12-25T10:15:16.187Z,82.61
2022-12-25T10:18:05.359Z,82.98
2022-12-25T10:20:43.842Z,82.53
2022-12-25T10:23:17.125Z,82.62
2022-12-25T10:25:46.050Z,82.15
2022-12-25T10:28:16.281Z,82.91
2022-12-25T10:30:46.969Z,83.77
2022-12-25T10:33:17.444Z,84.13
2022-12-25T10:35:46.266Z,83.58
2022-12-25T10:38:16.057Z,82.68
2022-12-25T10:40:55.967Z,81.77
2022-12-25T10:43:30.811Z,81.58
2022-12-25T10:45:59.706Z,81.00
2022-12-25T10:48:31.470Z,81.05
2022-12-25T10:50:59.186Z,80.85
2022-12-25T10:53:28.829Z,80.10
2022-12-25T10:55:58.693Z,79.08
2022-12-25T10:58:26.541Z,77.46
2022-12-25T11:00:57.793Z,77.71
2022-12-25T11:03:31.099Z,77.99
2022-12-25T11:05:59.378Z,77.77
2022-12-25T11:08:29.897Z,78.78
2022-12-25T11:11:06.055Z,79.93
2022-12-25T11:13:37.208Z,80.34
2022-12-25T11:16:09.417Z,80.90
2022-12-25T11:18:49.795Z,80.93
2022-12-25T11:21:19.977Z,81.42
2022-12-25T11:23:49.273Z,82.08
2022-12-25T11:26:17.938Z,81.98
2022-12-25T11:28:46.984Z,82.05
2022-12-25T11:31:19.206Z,81.76
2022-12-25T11:33:54.548Z,81.22
2022-12-25T11:36:30.836Z,82.11
2022-12-25T11:39:02.416Z,81.87
2022-12-25T11:41:34.467Z,80.73
2022-12-25T11:44:09.017Z,80.55
2022-12-25T11:46:42.318Z,80.58
2022-12-25T11:49:16.497Z,79.86
2022-12-25T11:51:48.375Z,80.34
2022-12-25T11:54:21.361Z,80.32
2022-12-25T11:56:49.898Z,80.37
2022-12-25T11:59:24.116Z,80.43
2022-12-25T12:01:57.492Z,80.74
2022-12-25T12:04:36.845Z,80.63
2022-12-25T12:07:18.159Z,80.10
2022-12-25T12:09:52.204Z,79.50
2022-12-25T12:12:24.387Z,78.92
2022-12-25T12:14:59.444Z,78.95
2022-12-25T12:17:27.779Z,78.71
2022-12-25T12:19:56.790Z,77.79
2022-12-25T12:22:27.208Z,78.46
2022-12-25T12:25:01.455Z,79.02
2022-12-25T12:27:36.026Z,78.78
2022-12-25T12:30:04.416Z,78.64
2022-12-25T12:32:41.834Z,78.17
2022-12-25T12:35:18.271Z,77.86
2022-12-25T12:37:48.812Z,78.45
2022-12-25T12:40:32.355Z,78.28
2022-12-25T12:43:00.800Z,78.56
2022-12-25T12:45:32.088Z,78.74
2022-12-25T12:48:00.025Z,78.88
2022-12-25T12:50:32.587Z,79.53
2022-12-25T12:53:05.533Z,79.99
2022-12-25T12:55:35.585Z,80.21
2022-12-25T12:58:05.552Z,80.15
2022-12-25T13:00:40.218Z,79.88
2022-12-25T13:03:29.285Z,80.11
2022-12-25T13:06:03.585Z,78.93
2022-12-25T13:08:43.595Z,77.97
2022-12-25T13:11:20.989Z,77.61
2022-12-25T13:13:56.525Z,77.40
2022-12-25T13:16:29.244Z,77.69
2022-12-25T13:18:57.634Z,78.29
2022-12-25T13:21:28.885Z,79.19
2022-12-25T13:23:58.379Z,79.39
2022-12-25T13:26:26.848Z,79.72
2022-12-25T13:28:55.943Z,80.46
2022-12-25T13:31:25.767Z,80.22
2022-12-25T13:33:59.065Z,80.75
2022-12-25T13:36:30.882Z,81.13
2022-12-25T13:39:00.511Z,81.35
2022-12-25T13:41:52.592Z,81.68
2022-12-25T13:44:22.998Z,81.45
2022-12-25T13:46:50.737Z,81.88
2022-12-25T13:49:21.125Z,81.86
2022-12-25T13:51:51.208Z,82.44
2022-12-25T13:54:20.120Z,82.15
2022-12-25T13:56:50.004Z,82.29
2022-12-25T13:59:19.871Z,81.60
2022-12-25T14:01:48.556Z,81.79
2022-12-25T14:04:18.344Z,81.92
2022-12-25T14:06:46.040Z,81.44
2022-12-25T14:09:16.289Z,82.24
2022-12-25T14:11:49.813Z,81.84
2022-12-25T14:14:21.268Z,81.99
2022-12-25T14:16:50.639Z,81.62
2022-12-25T14:19:26.651Z,82.05
2022-12-25T14:22:00.437Z,82.69
2022-12-25T14:24:35.045Z,82.53
2022-12-25T14:27:12.113Z,82.51
2022-12-25T14:29:44.207Z,82.43
2022-12-25T14:32:17.778Z,83.05
2022-12-25T14:34:47.969Z,83.57
2022-12-25T14:37:20.407Z,83.02
2022-12-25T14:39:59.852Z,82.92
2022-12-25T14:42:29.667Z,82.88
2022-12-25T14:45:00.632Z,82.63
2022-12-25T14:47:32.145Z,83.21
2022-12-25T14:50:00.077Z,82.73
2022-12-25T14:52:30.813Z,82.49
2022-12-25T14:55:02.741Z,83.44
2022-12-25T14:57:33.740Z,83.32
2022-12-25T15:00:09.437Z,83.28
2022-12-25T15:02:44.372Z,83.20
2022-12-25T15:05:27.264Z,83.66
2022-12-25T15:08:22.389Z,83.86
2022-12-25T15:11:01.490Z,83.81
2022-12-25T15:13:30.689Z,84.21
2022-12-25T15:16:01.982Z,83.78
2022-12-25T15:18:39.537Z,83.95
2022-12-25T15:21:08.067Z,84.06
2022-12-25T15:23:35.763Z,84.09
2022-12-25T15:26:04.939Z,84.62
2022-12-25T15:28:32.754Z,84.40
2022-12-25T15:31:00.573Z,83.84
2022-12-25T15:33:28.298Z,83.83
2022-12-25T15:35:56.028Z,84.28
2022-12-25T15:38:24.171Z,85.00
2022-12-25T15:40:52.269Z,84.64
2022-12-25T15:43:39.970Z,85.04
2022-12-25T15:46:10.210Z,84.80
2022-12-25T15:48:38.056Z,85.48
2022-12-25T15:51:05.982Z,85.53
2022-12-25T15:53:33.649Z,85.42
2022-12-25T15:56:08.309Z,85.48
2022-12-25T15:58:37.321Z,85.76
2022-12-25T16:01:05.218Z,85.67
2022-12-25T16:03:33.265Z,85.74
2022-12-25T16:06:01.089Z,85.59
2022-12-25T16:08:28.828Z,85.75
2022-12-25T16:10:56.566Z,85.81
2022-12-25T16:13:24.284Z,85.63
2022-12-25T16:15:53.397Z,85.96
2022-12-25T16:18:21.475Z,86.14
2022-12-25T16:20:49.220Z,86.53
2022-12-25T16:23:17.045Z,86.03
2022-12-25T16:25:44.845Z,86.29
2022-12-25T16:28:12.673Z,86.05
2022-12-25T16:30:41.490Z,86.22
2022-12-25T16:33:11.641Z,86.25
2022-12-25T16:35:39.586Z,86.19
2022-12-25T16:38:08.066Z,86.60
2022-12-25T16:40:36.253Z,86.73
2022-12-25T16:43:04.012Z,86.71
2022-12-25T16:45:31.759Z,86.76
2022-12-25T16:47:59.515Z,86.66
2022-12-25T16:50:28.545Z,87.15
2022-12-25T16:52:56.295Z,87.32
2022-12-25T16:55:29.607Z,87.26
2022-12-25T16:57:58.028Z,87.01
2022-12-25T17:00:26.410Z,87.10
2022-12-25T17:02:54.631Z,86.48
2022-12-25T17:05:22.609Z,86.42
2022-12-25T17:07:52.015Z,86.53
2022-12-25T17:10:21.273Z,86.32
2022-12-25T17:12:49.118Z,86.60
2022-12-25T17:15:16.989Z,87.03
2022-12-25T17:17:44.739Z,87.57
2022-12-25T17:20:13.117Z,87.63
2022-12-25T17:22:40.869Z,88.53
2022-12-25T17:25:10.609Z,88.20
2022-12-25T17:27:38.336Z,88.58
2022-12-25T17:30:07.215Z,88.46
2022-12-25T17:32:35.559Z,88.28
2022-12-25T17:35:03.461Z,89.18
2022-12-25T17:37:32.041Z,89.17
2022-12-25T17:39:59.791Z,89.30
2022-12-25T17:42:28.857Z,89.07
2022-12-25T17:44:56.689Z,88.79
2022-12-25T17:47:26.551Z,88.82
2022-12-25T17:49:54.323Z,89.04
2022-12-25T17:52:22.096Z,88.80
2022-12-25T17:54:49.781Z,88.74
2022-12-25T17:57:17.710Z,89.19
2022-12-25T17:59:46.837Z,88.91
2022-12-25T18:02:14.573Z,88.83
2022-12-25T18:04:42.344Z,88.81
2022-12-25T18:07:10.122Z,89.36
2022-12-25T18:09:37.817Z,89.28
2022-12-25T18:12:06.282Z,88.95
2022-12-25T18:14:34.093Z,89.25
2022-12-25T18:17:03.126Z,89.41
2022-12-25T18:19:30.854Z,89.20
2022-12-25T18:21:58.633Z,88.84
2022-12-25T18:24:26.319Z,89.17
2022-12-25T18:26:53.990Z,89.53
2022-12-25T18:29:21.757Z,89.31
2022-12-25T18:31:49.505Z,88.55
2022-12-25T18:34:18.704Z,88.52
2022-12-25T18:36:46.459Z,89.00
2022-12-25T18:39:14.441Z,89.76
2022-12-25T18:41:56.100Z,89.98
2022-12-25T18:44:23.894Z,90.47
2022-12-25T18:46:51.565Z,91.01
2022-12-25T18:49:20.633Z,91.22
2022-12-25T18:51:49.755Z,91.50
2022-12-25T18:54:17.424Z,91.68
2022-12-25T18:56:47.413Z,91.12
2022-12-25T18:59:18.576Z,91.40
2022-12-25T19:01:46.487Z,91.38
2022-12-25T19:04:16.213Z,91.62
2022-12-25T19:06:45.347Z,91.44
2022-12-25T19:09:13.251Z,91.53
2022-12-25T19:11:46.538Z,91.21
2022-12-25T19:14:14.870Z,90.82
2022-12-25T19:16:42.721Z,90.50
2022-12-25T19:19:10.526Z,90.48
2022-12-25T19:21:38.456Z,90.45
2022-12-25T19:24:08.060Z,91.06
2022-12-25T19:26:37.636Z,91.08
2022-12-25T19:29:05.481Z,90.41
2022-12-25T19:31:33.306Z,90.40
2022-12-25T19:34:01.119Z,89.95
2022-12-25T19:36:28.809Z,90.41
2022-12-25T19:38:56.599Z,89.97
2022-12-25T19:41:25.754Z,89.40
2022-12-25T19:43:53.595Z,88.58
2022-12-25T19:46:23.297Z,89.54
2022-12-25T19:48:51.339Z,89.50
2022-12-25T19:51:21.306Z,88.93
2022-12-25T19:53:49.207Z,87.82
2022-12-25T19:56:17.293Z,86.33
2022-12-25T19:58:46.610Z,85.55
2022-12-25T20:01:20.551Z,84.95
2022-12-25T20:03:49.536Z,84.49
2022-12-25T20:06:22.636Z,84.38
2022-12-25T20:08:52.612Z,83.79
2022-12-25T20:11:20.923Z,82.64
2022-12-25T20:13:51.463Z,83.00
2022-12-25T20:16:20.021Z,82.37
2022-12-25T20:18:47.833Z,82.04
2022-12-25T20:21:17.955Z,82.14
2022-12-25T20:23:47.579Z,82.01
2022-12-25T20:26:19.177Z,81.50
2022-12-25T20:28:48.236Z,81.08
2022-12-25T20:31:19.777Z,81.08
2022-12-25T20:33:48.231Z,81.61
2022-12-25T20:36:16.170Z,80.84
2022-12-25T20:38:43.938Z,80.83
2022-12-25T20:41:30.226Z,80.79
2022-12-25T20:43:58.643Z,80.91
2022-12-25T20:46:29.072Z,80.76
2022-12-25T20:48:56.877Z,80.80
2022-12-25T20:51:26.866Z,80.93
2022-12-25T20:53:55.109Z,80.86
2022-12-25T20:56:25.103Z,80.75
2022-12-25T20:58:57.156Z,80.65
2022-12-25T21:01:32.411Z,80.82
2022-12-25T21:04:00.635Z,81.34
2022-12-25T21:06:28.403Z,81.01
2022-12-25T21:08:56.154Z,79.75
2022-12-25T21:11:24.105Z,79.60
2022-12-25T21:13:52.087Z,78.42
2022-12-25T21:16:22.645Z,77.20
2022-12-25T21:18:53.928Z,77.02
2022-12-25T21:21:22.446Z,77.17
2022-12-25T21:23:50.163Z,77.13
2022-12-25T21:26:20.764Z,76.46
2022-12-25T21:28:49.511Z,76.36
2022-12-25T21:31:17.932Z,76.19
2022-12-25T21:33:54.028Z,75.37
2022-12-25T21:36:26.913Z,75.09
2022-12-25T21:38:57.274Z,75.15
2022-12-25T21:41:25.908Z,74.78
2022-12-25T21:43:53.833Z,75.08
2022-12-25T21:46:21.620Z,75.22
2022-12-25T21:48:49.641Z,75.02
2022-12-25T21:51:38.041Z,74.19
2022-12-25T21:54:08.611Z,73.88
2022-12-25T21:56:43.549Z,74.38
2022-12-25T21:59:15.088Z,74.06
2022-12-25T22:01:42.971Z,73.95
2022-12-25T22:04:10.832Z,74.20
2022-12-25T22:06:56.076Z,74.87
2022-12-25T22:09:25.371Z,74.39
2022-12-25T22:12:10.502Z,73.66
2022-12-25T22:14:56.388Z,73.78
2022-12-25T22:17:44.037Z,73.05
2022-12-25T22:20:14.041Z,73.36
2022-12-25T22:22:41.763Z,73.33
2022-12-25T22:25:11.948Z,73.17
2022-12-25T22:27:41.345Z,74.11
2022-12-25T22:30:11.972Z,73.34
2022-12-25T22:32:39.830Z,72.64
2022-12-25T22:35:08.217Z,73.12
2022-12-25T22:37:36.880Z,72.91
2022-12-25T22:40:05.957Z,72.52
2022-12-25T22:42:35.092Z,73.40
2022-12-25T22:45:03.108Z,73.10
2022-12-25T22:47:30.876Z,72.86
2022-12-25T22:49:58.661Z,73.47
2022-12-25T22:52:26.643Z,72.86
2022-12-25T22:54:54.427Z,72.61
2022-12-25T22:57:22.153Z,73.53
2022-12-25T22:59:52.718Z,72.63
2022-12-25T23:02:20.936Z,72.72
2022-12-25T23:04:49.243Z,72.71
2022-12-25T23:07:17.445Z,73.06
2022-12-25T23:09:45.706Z,72.78
2022-12-25T23:12:33.430Z,72.55
2022-12-25T23:15:01.607Z,74.12
2022-12-25T23:17:46.779Z,72.63
2022-12-25T23:20:32.819Z,72.58
2022-12-25T23:23:18.244Z,72.19
2022-12-25T23:26:03.689Z,71.68
2022-12-25T23:28:49.078Z,71.71
2022-12-25T23:31:18.588Z,71.67
2022-12-25T23:33:46.349Z,71.70
2022-12-25T23:36:14.049Z,71.87
2022-12-25T23:38:41.830Z,71.75
2022-12-25T23:41:09.511Z,71.17
2022-12-25T23:43:37.265Z,71.37
2022-12-25T23:46:05.116Z,71.20
2022-12-25T23:48:34.230Z,71.44
2022-12-25T23:51:04.994Z,71.19
2022-12-25T23:53:32.989Z,72.15
2022-12-25T23:56:01.411Z,71.82
2022-12-25T23:58:30.267Z,71.40
